Aikoumaru No.8 — JD3288 — position and weather

sailwx.info

Track history (hours):
 
Tides and Currents Weather Stations Pressure Air Temp Water Temp Dewpoint Dewpoint Depression Visibility Wind Speed Wind Dir Waves Ship Positions

Aikoumaru No.8

Last reported at 2014-Sep-01 20:29 UTC. Time now 2014-Sep-01 21:02 UTC.
Position N 34°37' E 135°23'.

Length 74 m; draft 4.5 m.

Type: Cargo ship. MMSI: 431003153.

Date/timePositionNaut miles runAvg speedWind from/ knotsBaromVisibWave heightAir tempDewpointWater temp
2014-Sep-01 20:29N 34°37' E 135°23'0 0.0
2014-Sep-01 19:29N 34°37' E 135°23'0 0.0
2014-Sep-01 18:29N 34°37' E 135°23'0 0.0
2014-Sep-01 17:29N 34°37' E 135°23'0 0.0
2014-Sep-01 16:29N 34°37' E 135°23'0 0.0
2014-Sep-01 15:29N 34°37' E 135°23'0 0.0
2014-Sep-01 14:17N 34°37' E 135°23'0 0.1
2014-Sep-01 13:29N 34°37' E 135°23'0 0.0
2014-Sep-01 12:29N 34°37' E 135°23'0 0.0
2014-Sep-01 11:29N 34°37' E 135°23'0 0.0
2014-Sep-01 10:29N 34°37' E 135°23'0 0.0
2014-Sep-01 09:11N 34°37' E 135°23'0 0.0
2014-Sep-01 08:17N 34°37' E 135°23'0 0.0
2014-Sep-01 07:23N 34°37' E 135°23'0 0.0
2014-Sep-01 06:29N 34°37' E 135°23'1 1.6
2014-Sep-01 05:33N 34°36' E 135°21'1111.2
2014-Sep-01 04:33N 34°28' E 135°12'1211.3
2014-Sep-01 03:29N 34°18' E 135°04'1111.3
2014-Sep-01 02:33N 34°07' E 135°02'  
2014-Aug-26 10:26N 35°30' E 140°45'3411.1
2014-Aug-26 07:22N 35°03' E 140°19'1012.0
2014-Aug-26 06:33N 34°57' E 140°09'1212.1
2014-Aug-26 05:33N 34°50' E 139°57'246 9.5
2014-Aug-25 03:33N 34°10' E 135°03'1311.6
2014-Aug-25 02:28N 34°23' E 135°07'1011.4
2014-Aug-25 01:33N 34°31' E 135°15'1111.3
2014-Aug-25 00:34N 34°39' E 135°24'1 1.2
2014-Aug-24 23:25N 34°40' E 135°26'0 0.3
2014-Aug-24 22:32N 34°39' E 135°26'3 3.1
2014-Aug-24 21:31N 34°37' E 135°23'5 0.4
2014-Aug-24 09:31N 34°34' E 135°27'0 0.5
2014-Aug-24 08:33N 34°34' E 135°27'1 1.2
2014-Aug-24 07:30N 34°35' E 135°28'0 0.0
2014-Aug-24 06:24N 34°35' E 135°28'0 0.0
2014-Aug-24 05:30N 34°35' E 135°28'0 0.0
2014-Aug-24 04:24N 34°35' E 135°28'0 0.0
2014-Aug-24 03:30N 34°35' E 135°28'1 0.9
2014-Aug-24 02:27N 34°35' E 135°27'0 0.0
2014-Aug-24 01:33N 34°35' E 135°27'0 0.1
2014-Aug-24 00:33N 34°35' E 135°27'0 0.0
2014-Aug-23 23:33N 34°35' E 135°27'0 0.0
2014-Aug-23 22:21N 34°35' E 135°27'0 0.0
2014-Aug-23 21:33N 34°35' E 135°27'6 5.6
2014-Aug-23 20:33N 34°34' E 135°20'1312.6
2014-Aug-23 19:33N 34°25' E 135°10'  
Track history (hours):
 
Tides and Currents Weather Stations Pressure Air Temp Water Temp Dewpoint Dewpoint Depression Visibility Wind Speed Wind Dir Waves Ship Positions

Aikoumaru No.8

Last reported at 2014-Sep-01 20:29 UTC. Time now 2014-Sep-01 21:02 UTC.
Position N 34°37' E 135°23'.

Length 74 m; draft 4.5 m.

Type: Cargo ship. MMSI: 431003153.

Date/timePositionNaut miles runAvg speedWind from/ knotsBaromVisibWave heightAir tempDewpointWater temp
2014-Sep-01 20:29N 34°37' E 135°23'0 0.0
2014-Sep-01 19:29N 34°37' E 135°23'0 0.0
2014-Sep-01 18:29N 34°37' E 135°23'0 0.0
2014-Sep-01 17:29N 34°37' E 135°23'0 0.0
2014-Sep-01 16:29N 34°37' E 135°23'0 0.0
2014-Sep-01 15:29N 34°37' E 135°23'0 0.0
2014-Sep-01 14:17N 34°37' E 135°23'0 0.1
2014-Sep-01 13:29N 34°37' E 135°23'0 0.0
2014-Sep-01 12:29N 34°37' E 135°23'0 0.0
2014-Sep-01 11:29N 34°37' E 135°23'0 0.0
2014-Sep-01 10:29N 34°37' E 135°23'0 0.0
2014-Sep-01 09:11N 34°37' E 135°23'0 0.0
2014-Sep-01 08:17N 34°37' E 135°23'0 0.0
2014-Sep-01 07:23N 34°37' E 135°23'0 0.0
2014-Sep-01 06:29N 34°37' E 135°23'1 1.6
2014-Sep-01 05:33N 34°36' E 135°21'1111.2
2014-Sep-01 04:33N 34°28' E 135°12'1211.3
2014-Sep-01 03:29N 34°18' E 135°04'1111.3
2014-Sep-01 02:33N 34°07' E 135°02'  
2014-Aug-26 10:26N 35°30' E 140°45'3411.1
2014-Aug-26 07:22N 35°03' E 140°19'1012.0
2014-Aug-26 06:33N 34°57' E 140°09'1212.1
2014-Aug-26 05:33N 34°50' E 139°57'246 9.5
2014-Aug-25 03:33N 34°10' E 135°03'1311.6
2014-Aug-25 02:28N 34°23' E 135°07'1011.4
2014-Aug-25 01:33N 34°31' E 135°15'1111.3
2014-Aug-25 00:34N 34°39' E 135°24'1 1.2
2014-Aug-24 23:25N 34°40' E 135°26'0 0.3
2014-Aug-24 22:32N 34°39' E 135°26'3 3.1
2014-Aug-24 21:31N 34°37' E 135°23'5 0.4
2014-Aug-24 09:31N 34°34' E 135°27'0 0.5
2014-Aug-24 08:33N 34°34' E 135°27'1 1.2
2014-Aug-24 07:30N 34°35' E 135°28'0 0.0
2014-Aug-24 06:24N 34°35' E 135°28'0 0.0
2014-Aug-24 05:30N 34°35' E 135°28'0 0.0
2014-Aug-24 04:24N 34°35' E 135°28'0 0.0
2014-Aug-24 03:30N 34°35' E 135°28'1 0.9
2014-Aug-24 02:27N 34°35' E 135°27'0 0.0
2014-Aug-24 01:33N 34°35' E 135°27'0 0.1
2014-Aug-24 00:33N 34°35' E 135°27'0 0.0
2014-Aug-23 23:33N 34°35' E 135°27'0 0.0
2014-Aug-23 22:21N 34°35' E 135°27'0 0.0
2014-Aug-23 21:33N 34°35' E 135°27'6 5.6
2014-Aug-23 20:33N 34°34' E 135°20'1312.6
2014-Aug-23 19:33N 34°25' E 135°10'  

Dump ship's entire track history